Scott AFB/Midamerica Airport
KBLV : now visible

Airfield :











YOU CAN JOIN US ON...

 
LOGIN :

Register | Disclaimer

   EN    FR    IT 

 









Legend :    VFR   Marginal VFR   IFR   Intensive IFR   Very Intensive IFR
Visi :
Ceiling :
>= 8 km
>= 3000ft
5 to 8 km
1000 to 3000 ft
1500m to 5 km
500 to 1000 ft
800 to 1500m
200 to 500 ft
< 800m
< 200 ft
Symbols :   Thunderstorms  Fog  Heavy snow  Heavy precipitations  Wind > 20 kt







- Airport Elevation : 459 ft


KBLV - Scott AFB/Midamerica

CURRENT METAR :
  • 190956Z AUTO 00000KT 10SM CLR 22/21 A2995 RMK AO2 SLP141 T02170210 $

EXPIRED METARs :
  • 190856Z AUTO 00000KT 10SM CLR 22/21 A2995 RMK AO2 SLP141 T02150206 50006 $
  • 190756Z AUTO 00000KT 10SM CLR 22/21 A2994 RMK AO2 SLP137 T02190209 $

TAF TAF KBLV
Valid from the 19 at 08:00 until the 20 at 14:00 UTC


190800Z 1908/2014 VRB06KT 9999 SCT100 QNH2992INS
BECMG 1913/1914 VRB06KT 9999 SCT005 BKN030 QNH2993INS
TEMPO 1919/1923 8000 -TSRA OVC035CB
BECMG 2010/2011 VRB06KT 9999 SCT020 BKN050 QNH3000INS TX31/1920Z TN20/1911Z
No reported NOTAMs for that airfield.



MET'MAP, your aeronautical weather chart ! - Copyright ORBIFLY December 2007 - Disclaimer

ORBIFLY MET'MAP TEAM :

Programming & Development : Alexandra Zaïnal
Concept & Development : Baudouin d'Aumeries
Co-Development & Prog : Marc-Olivier Méhu
Technical & hardware support : Manuel Goepfert

Contact : metmap@orbifly.com




SOURCES & CREDITS :

   NOAA       Earth
Advisory